AirNav   Air Wisconsin Up To $57,000 Bonus
 
 1344 users online  

4GA9 Ebeneezer Airport
Cumming, Georgia, USA

GOING TO CUMMING?


FAA INFORMATION EFFECTIVE 04 NOVEMBER 2021

Location

FAA Identifier: 4GA9
Lat/Long: 34-14-32.3530N 084-03-25.6760W
34-14.539217N 084-03.427933W
34.2423203,-84.0571322
(estimated)
Elevation: 1230 ft. / 375 m (estimated)
Variation: 02W (1985)
From city: 4 miles NE of CUMMING, GA
Time zone: UTC -4 (UTC -5 during Standard Time)
Zip code: 30041

Airport Operations

Airport use: Private use. Permission required prior to landing
Activation date: 11/1978
Control tower: no
ARTCC: ATLANTA CENTER
FSS: MACON FLIGHT SERVICE STATION
Attendance: IREG
Wind indicator: no
Segmented circle: no

Airport Communications

WX ASOS at GVL (11 nm E): 126.475 (770-532-4687)
WX AWOS-3PT at LZU (17 nm S): PHONE 770-339-7753
WX AWOS-3 at CNI (19 nm W): 119.825 (770-704-6235)

Nearby radio navigation aids

VOR radial/distance  VOR name  Freq  Var
PDKr034/25.1PEACHTREE VOR/DME116.6005W

 
NDB name  Hdg/Dist  Freq  Var  ID
FLOWERY BRANCH290/7.836503WFKV ..-. -.- ...-
CHERO097/21.441505WDJD -.. .--- -..
BARROW COUNTY313/29.740405WBMW -... -- .--
ALCOVY343/39.237003WVOF ...- --- ..-.

Airport Services

Runway Information

Runway 9/27

Dimensions: 1400 x 100 ft. / 427 x 30 m
Surface: turf
RUNWAY 9  RUNWAY 27
Traffic pattern: leftleft
Obstructions: nonehill, 200 ft. from runway

Airport Ownership and Management from official FAA records

Ownership: Privately-owned
Owner: L. D. WATSON
5365 SHADY GROVE ROAD
CUMMING, GA 30130
Phone 404-887-3141
Manager: L. D. WATSON
5365 SHADY GROVE ROAD
CUMMING, GA 30130
Phone 404-887-3141

Airport Operational Statistics

Aircraft based on the field: 1
Single engine airplanes: 1
    

Additional Remarks

FOR CD CTC ATLANTA APCH AT 678-364-6131.

Instrument Procedures

There are no published instrument procedures at 4GA9.

Some nearby airports with instrument procedures:

KGVL - Lee Gilmer Memorial Airport (11 nm E)
KLZU - Gwinnett County Airport-Briscoe Field (17 nm S)
KCNI - Cherokee County Regional Airport (19 nm W)
KJZP - Pickens County Airport (24 nm NW)
KWDR - Barrow County Airport (25 nm SE)
 
Loc | Ops | Rwys | IFR | FBO | Links
Com | Nav | Svcs | Stats | Notes
Area around 4GA9 (Ebeneezer Airport)
 
Road maps at: MapQuest Bing Google
 
Aerial photo
No photo
 
Sectional chart

 
Airport distance calculator
Flying to Ebeneezer Airport? Find the distance to fly.

From to 4GA9

Sunrise and sunset
Times for 28-Nov-2021
 Local
(UTC-5)
 Zulu
(UTC)
Morning civil twilight06:5511:55
Sunrise07:2212:22
Sunset17:2622:26
Evening civil twilight17:5322:53

Current date and time
Zulu (UTC)  28-Nov-2021 20:11:32
Local (UTC-5)  28-Nov-2021 15:11:32
 
METAR
KGVL 
11nm E 
281953Z AUTO 26009KT 10SM CLR 16/M01 A2994 RMK AO2 SLP134 T01561006
KLZU 
16nm S 
281956Z 27007KT 230V310 10SM CLR 15/01 A2995 RMK AO2 SLP151 T01500011
KCNI 
19nm W 
281955Z AUTO 29006KT 10SM CLR 13/00 A2998 RMK AO2
TAF
KPDK 
25nm SW 
281738Z 2818/2918 29007KT P6SM BKN250 FM290200 32006KT P6SM FEW250 FM291500 34009G19KT P6SM SKC
KMGE 
30nm SW 
281400Z 2814/2920 29009KT 9999 SCT150 BKN250 QNH3004INS BECMG 2815/2816 30010G15KT 9999 BKN150 BKN250 QNH2998INS BECMG 2822/2823 32012KT 9999 FEW025 SCT150 BKN250 QNH3000INS BECMG 2915/2916 31010G15KT 9999 FEW200 QNH3014INS TX14/2820Z TN01/2912Z
KRYY 
30nm SW 
281738Z 2818/2918 30007KT P6SM BKN250 FM290200 33007KT P6SM SKC FM291400 32007KT P6SM SKC
NOTAMs
Click for the latest NOTAMs
NOTAMs are issued by the DoD/FAA and will open in a separate window not controlled by AirNav.

 

 
 

Would you like to see your business listed on this page?

 If your business provides an interesting product or service to pilots, flight crews, aircraft, or users of the Ebeneezer Airport, you should consider listing it here.  To start the listing process, click on the button below
 
Add a business
 

Other Pages about Ebeneezer Airport

Update a link
 
Copyright © AirNav, LLC. All rights reserved. Privacy Policy  Contact